createdAt,value
2023-01-29T00:02:12.980Z,-0.26
2023-01-29T00:04:40.822Z,-0.28
2023-01-29T00:07:08.680Z,-0.32
2023-01-29T00:09:36.876Z,-0.36
2023-01-29T00:12:04.845Z,-0.36
2023-01-29T00:14:32.639Z,-0.38
2023-01-29T00:17:00.544Z,-0.39
2023-01-29T00:19:28.366Z,-0.40
2023-01-29T00:21:56.235Z,-0.38
2023-01-29T00:24:23.973Z,-0.37
2023-01-29T00:26:52.255Z,-0.36
2023-01-29T00:29:21.951Z,-0.32
2023-01-29T00:31:49.988Z,-0.29
2023-01-29T00:34:17.934Z,-0.27
2023-01-29T00:36:46.385Z,-0.27
2023-01-29T00:39:14.310Z,-0.26
2023-01-29T00:42:00.744Z,-0.29
2023-01-29T00:44:47.091Z,-0.30
2023-01-29T00:47:30.757Z,-0.32
2023-01-29T00:50:00.002Z,-0.34
2023-01-29T00:52:28.794Z,-0.40
2023-01-29T00:54:58.818Z,-0.44
2023-01-29T00:57:28.936Z,-0.49
2023-01-29T00:59:57.191Z,-0.53
2023-01-29T01:02:44.565Z,-0.56
2023-01-29T01:05:17.792Z,-0.58
2023-01-29T01:07:51.997Z,-0.60
2023-01-29T01:10:30.125Z,-0.60
2023-01-29T01:13:04.914Z,-0.59
2023-01-29T01:15:40.523Z,-0.57
2023-01-29T01:18:08.418Z,-0.56
2023-01-29T01:20:37.125Z,-0.55
2023-01-29T01:23:05.425Z,-0.54
2023-01-29T01:25:33.896Z,-0.53
2023-01-29T01:28:01.856Z,-0.54
2023-01-29T01:30:29.944Z,-0.57
2023-01-29T01:32:58.190Z,-0.57
2023-01-29T01:35:26.105Z,-0.56
2023-01-29T01:37:53.919Z,-0.54
2023-01-29T01:40:24.662Z,-0.51
2023-01-29T01:42:58.070Z,-0.51
2023-01-29T01:45:30.396Z,-0.47
2023-01-29T01:48:17.258Z,-0.48
2023-01-29T01:50:58.819Z,-0.49
2023-01-29T01:53:35.108Z,-0.47
2023-01-29T01:56:08.322Z,-0.47
2023-01-29T01:58:43.632Z,-0.48
2023-01-29T02:01:12.821Z,-0.47
2023-01-29T02:04:08.405Z,-0.50
2023-01-29T02:06:58.186Z,-0.50
2023-01-29T02:09:43.461Z,-0.50
2023-01-29T02:12:13.318Z,-0.47
2023-01-29T02:14:42.443Z,-0.47
2023-01-29T02:17:15.376Z,-0.51
2023-01-29T02:20:01.377Z,-0.55
2023-01-29T02:22:33.348Z,-0.57
2023-01-29T02:25:13.992Z,-0.57
2023-01-29T02:28:10.178Z,-0.57
2023-01-29T02:30:45.462Z,-0.57
2023-01-29T02:33:31.490Z,-0.63
2023-01-29T02:36:05.692Z,-0.64
2023-01-29T02:38:47.375Z,-0.61
2023-01-29T02:41:28.736Z,-0.59
2023-01-29T02:44:13.375Z,-0.60
2023-01-29T02:46:51.037Z,-0.60
2023-01-29T02:49:33.478Z,-0.59
2023-01-29T02:52:23.413Z,-0.60
2023-01-29T02:55:20.395Z,-0.58
2023-01-29T02:58:01.997Z,-0.60
2023-01-29T03:00:40.431Z,-0.59
2023-01-29T03:03:33.397Z,-0.60
2023-01-29T03:06:20.526Z,-0.62
2023-01-29T03:09:05.413Z,-0.63
2023-01-29T03:11:50.415Z,-0.63
2023-01-29T03:15:00.627Z,-0.63
2023-01-29T03:17:38.432Z,-0.70
2023-01-29T03:20:15.808Z,-0.70
2023-01-29T03:22:53.406Z,-0.70
2023-01-29T03:25:45.601Z,-0.70
2023-01-29T03:28:38.559Z,-0.73
2023-01-29T03:31:31.517Z,-0.75
2023-01-29T03:34:28.421Z,-0.76
2023-01-29T03:37:08.451Z,-0.78
2023-01-29T03:39:39.359Z,-0.78
2023-01-29T03:42:39.433Z,-0.78
2023-01-29T03:45:22.511Z,-0.76
2023-01-29T03:48:51.443Z,-0.74
2023-01-29T03:51:37.461Z,-0.69
2023-01-29T04:01:51.337Z,-0.59
2023-01-29T04:04:27.011Z,-0.61
2023-01-29T04:07:02.029Z,-0.62
2023-01-29T04:09:43.802Z,-0.64
2023-01-29T04:12:16.087Z,-0.64
2023-01-29T04:14:46.540Z,-0.65
2023-01-29T04:17:19.508Z,-0.70
2023-01-29T04:19:56.042Z,-0.73
2023-01-29T04:22:31.311Z,-0.75
2023-01-29T04:25:02.869Z,-0.77
2023-01-29T04:27:49.668Z,-0.80
2023-01-29T04:30:24.567Z,-0.83
2023-01-29T04:33:04.506Z,-0.87
2023-01-29T04:35:39.853Z,-0.88
2023-01-29T04:38:16.651Z,-0.90
2023-01-29T04:41:06.856Z,-0.92
2023-01-29T04:44:24.799Z,-0.96
2023-01-29T04:46:57.772Z,-0.98
2023-01-29T04:49:41.021Z,-0.97
2023-01-29T04:52:11.500Z,-0.97
2023-01-29T04:54:58.135Z,-0.94
2023-01-29T04:57:33.507Z,-0.91
2023-01-29T05:00:13.910Z,-0.91
2023-01-29T05:02:44.902Z,-0.94
2023-01-29T05:05:14.843Z,-0.95
2023-01-29T05:07:44.205Z,-0.96
2023-01-29T05:10:15.235Z,-0.94
2023-01-29T05:12:47.766Z,-0.90
2023-01-29T05:15:20.336Z,-0.88
2023-01-29T05:17:48.466Z,-0.85
2023-01-29T05:20:16.820Z,-0.85
2023-01-29T05:22:46.888Z,-0.84
2023-01-29T05:25:30.445Z,-0.83
2023-01-29T05:28:05.567Z,-0.83
2023-01-29T05:30:36.097Z,-0.83
2023-01-29T05:33:05.222Z,-0.82
2023-01-29T05:35:33.259Z,-0.84
2023-01-29T05:38:01.083Z,-0.85
2023-01-29T05:40:28.917Z,-0.85
2023-01-29T05:42:56.928Z,-0.86
2023-01-29T05:45:25.304Z,-0.87
2023-01-29T05:48:00.137Z,-0.89
2023-01-29T05:50:28.040Z,-0.91
2023-01-29T05:52:57.621Z,-0.92
2023-01-29T05:55:26.192Z,-0.95
2023-01-29T05:57:54.068Z,-0.98
2023-01-29T06:00:22.042Z,-0.97
2023-01-29T06:02:50.521Z,-0.99
2023-01-29T06:05:18.607Z,-0.98
2023-01-29T06:07:47.261Z,-0.96
2023-01-29T06:10:17.903Z,-0.92
2023-01-29T06:12:46.202Z,-0.88
2023-01-29T06:15:19.804Z,-0.82
2023-01-29T06:17:47.621Z,-0.80
2023-01-29T06:20:15.819Z,-0.75
2023-01-29T06:22:43.879Z,-0.71
2023-01-29T06:25:12.149Z,-0.69
2023-01-29T06:27:40.046Z,-0.69
2023-01-29T06:30:08.801Z,-0.68
2023-01-29T06:32:36.758Z,-0.66
2023-01-29T06:35:05.464Z,-0.64
2023-01-29T06:37:33.454Z,-0.64
2023-01-29T06:40:01.501Z,-0.65
2023-01-29T06:42:29.396Z,-0.65
2023-01-29T06:44:57.970Z,-0.65
2023-01-29T06:47:27.955Z,-0.69
2023-01-29T06:49:55.837Z,-0.69
2023-01-29T06:52:25.444Z,-0.67
2023-01-29T06:54:53.324Z,-0.64
2023-01-29T06:57:21.277Z,-0.60
2023-01-29T06:59:49.240Z,-0.61
2023-01-29T07:02:17.511Z,-0.63
2023-01-29T07:04:45.496Z,-0.63
2023-01-29T07:07:13.494Z,-0.64
2023-01-29T07:09:42.310Z,-0.62
2023-01-29T07:12:11.348Z,-0.59
2023-01-29T07:14:39.190Z,-0.54
2023-01-29T07:17:07.109Z,-0.47
2023-01-29T07:19:35.027Z,-0.42
2023-01-29T07:22:04.102Z,-0.38
2023-01-29T07:24:32.865Z,-0.34
2023-01-29T07:27:00.889Z,-0.31
2023-01-29T07:29:29.113Z,-0.26
2023-01-29T07:31:57.031Z,-0.24
2023-01-29T07:34:25.081Z,-0.24
2023-01-29T07:36:54.046Z,-0.20
2023-01-29T07:39:21.871Z,-0.19
2023-01-29T07:41:49.689Z,-0.17
2023-01-29T07:44:17.632Z,-0.17
2023-01-29T07:46:45.457Z,-0.14
2023-01-29T07:49:13.533Z,-0.13
2023-01-29T07:51:41.705Z,-0.10
2023-01-29T07:54:09.558Z,-0.08
2023-01-29T07:56:37.391Z,-0.03
2023-01-29T07:59:05.317Z,0.04
2023-01-29T08:01:33.246Z,0.12
2023-01-29T08:04:01.009Z,0.21
2023-01-29T08:06:28.812Z,0.29
2023-01-29T08:08:57.593Z,0.39
2023-01-29T08:11:25.572Z,0.49
2023-01-29T08:13:54.579Z,0.57
2023-01-29T08:16:22.355Z,0.61
2023-01-29T08:18:50.273Z,0.66
2023-01-29T08:21:18.043Z,0.69
2023-01-29T08:23:45.839Z,0.73
2023-01-29T08:26:13.670Z,0.73
2023-01-29T08:28:41.623Z,0.69
2023-01-29T08:31:16.973Z,0.66
2023-01-29T08:33:44.812Z,0.70
2023-01-29T08:36:13.139Z,0.72
2023-01-29T08:38:40.957Z,0.76
2023-01-29T08:41:08.777Z,0.77
2023-01-29T08:43:40.821Z,0.78
2023-01-29T08:46:08.814Z,0.82
2023-01-29T08:48:36.994Z,0.80
2023-01-29T08:51:05.467Z,0.82
2023-01-29T08:53:33.453Z,0.87
2023-01-29T08:56:01.597Z,0.92
2023-01-29T08:58:29.412Z,1.02
2023-01-29T09:00:57.289Z,1.00
2023-01-29T09:03:25.160Z,0.98
2023-01-29T09:05:52.995Z,1.01
2023-01-29T09:08:20.936Z,1.07
2023-01-29T09:10:48.745Z,1.10
2023-01-29T09:13:16.570Z,1.12
2023-01-29T09:15:44.515Z,1.18
2023-01-29T09:18:12.329Z,1.20
2023-01-29T09:20:40.100Z,1.22
2023-01-29T09:23:10.366Z,1.30
2023-01-29T09:25:38.458Z,1.39
2023-01-29T09:28:06.426Z,1.40
2023-01-29T09:30:37.752Z,1.46
2023-01-29T09:33:07.214Z,1.48
2023-01-29T09:35:35.131Z,1.48
2023-01-29T09:38:03.166Z,1.50
2023-01-29T09:40:38.753Z,1.53
2023-01-29T09:43:20.747Z,1.60
2023-01-29T09:46:15.218Z,1.63
2023-01-29T09:48:46.013Z,1.60
2023-01-29T09:51:28.531Z,1.62
2023-01-29T09:54:14.670Z,1.63
2023-01-29T09:56:45.778Z,1.64
2023-01-29T09:59:17.345Z,1.72
2023-01-29T10:01:56.148Z,1.74
2023-01-29T10:04:52.136Z,1.83
2023-01-29T10:07:35.251Z,1.99
2023-01-29T10:10:19.082Z,2.04
2023-01-29T10:13:19.480Z,2.02
2023-01-29T10:16:13.280Z,2.08
2023-01-29T10:19:10.132Z,2.28
2023-01-29T10:22:01.042Z,2.51
2023-01-29T10:24:46.030Z,2.61
2023-01-29T10:27:16.915Z,2.66
2023-01-29T10:29:48.051Z,2.79
2023-01-29T10:32:18.841Z,2.78
2023-01-29T10:34:52.012Z,2.77
2023-01-29T10:37:24.412Z,2.71
2023-01-29T10:39:52.390Z,2.69
2023-01-29T10:42:34.509Z,2.66
2023-01-29T10:45:49.623Z,2.64
2023-01-29T10:48:41.241Z,2.61
2023-01-29T10:51:21.501Z,2.60
2023-01-29T10:54:14.982Z,2.52
2023-01-29T10:56:53.412Z,2.49
2023-01-29T10:59:35.083Z,2.52
2023-01-29T11:02:03.558Z,2.58
2023-01-29T11:04:32.132Z,2.59
2023-01-29T11:07:00.529Z,2.60
2023-01-29T11:09:51.548Z,2.64
2023-01-29T11:12:26.734Z,2.58
2023-01-29T11:14:57.392Z,2.58
2023-01-29T11:17:26.371Z,2.53
2023-01-29T11:19:56.087Z,2.48
2023-01-29T11:22:29.070Z,2.50
2023-01-29T11:25:11.418Z,2.51
2023-01-29T11:27:44.599Z,2.55
2023-01-29T11:30:25.722Z,2.65
2023-01-29T11:33:19.603Z,2.77
2023-01-29T11:35:47.629Z,2.94
2023-01-29T11:38:27.167Z,3.13
2023-01-29T11:41:22.421Z,3.23
2023-01-29T11:43:50.258Z,3.24
2023-01-29T11:46:18.078Z,3.13
2023-01-29T11:48:50.232Z,3.10
2023-01-29T11:51:27.396Z,3.10
2023-01-29T11:53:59.317Z,3.06
2023-01-29T11:56:51.764Z,3.01
2023-01-29T11:59:48.623Z,2.91
2023-01-29T12:02:26.683Z,2.87
2023-01-29T12:04:57.308Z,2.83
2023-01-29T12:07:25.734Z,2.78
2023-01-29T12:09:56.123Z,2.69
2023-01-29T12:12:31.999Z,2.60
2023-01-29T12:15:26.084Z,2.58
2023-01-29T12:17:58.586Z,2.60
2023-01-29T12:20:41.237Z,2.61
2023-01-29T12:23:25.896Z,2.58
2023-01-29T12:26:09.925Z,2.46
2023-01-29T12:28:53.402Z,2.40
2023-01-29T12:31:27.897Z,2.34
2023-01-29T12:34:08.980Z,2.27
2023-01-29T12:36:53.384Z,2.18
2023-01-29T12:39:22.035Z,2.10
2023-01-29T12:41:52.950Z,2.07
2023-01-29T12:44:42.489Z,2.07
2023-01-29T12:47:36.186Z,2.07
2023-01-29T12:50:24.737Z,2.05
2023-01-29T12:52:55.631Z,2.04
2023-01-29T12:55:33.690Z,2.02
2023-01-29T12:58:04.836Z,2.03
2023-01-29T13:00:35.913Z,2.06
2023-01-29T13:03:38.660Z,2.08
2023-01-29T13:06:10.553Z,2.04
2023-01-29T13:08:45.208Z,1.96
2023-01-29T13:11:20.609Z,1.90
2023-01-29T13:13:59.989Z,1.85
2023-01-29T13:16:37.567Z,1.82
2023-01-29T13:19:14.993Z,1.75
2023-01-29T13:21:44.724Z,1.74
2023-01-29T13:24:17.611Z,1.70
2023-01-29T13:26:47.749Z,1.67
2023-01-29T13:29:30.407Z,1.68
2023-01-29T13:32:01.007Z,1.70
2023-01-29T13:34:35.225Z,1.70
2023-01-29T13:37:22.100Z,1.69
2023-01-29T13:39:53.448Z,1.74
2023-01-29T13:42:35.342Z,1.79
2023-01-29T13:45:07.133Z,1.81
2023-01-29T13:47:40.435Z,1.76
2023-01-29T13:50:30.635Z,1.72
2023-01-29T13:53:02.333Z,1.64
2023-01-29T13:55:36.571Z,1.52
2023-01-29T13:58:31.889Z,1.40
2023-01-29T14:01:01.454Z,1.37
2023-01-29T14:03:39.925Z,1.42
2023-01-29T14:06:39.107Z,1.42
2023-01-29T14:09:32.528Z,1.38
2023-01-29T14:12:01.215Z,1.41
2023-01-29T14:14:47.815Z,1.42
2023-01-29T14:17:17.431Z,1.45
2023-01-29T14:19:54.815Z,1.42
2023-01-29T14:22:27.254Z,1.40
2023-01-29T14:25:00.629Z,1.35
2023-01-29T14:27:30.194Z,1.30
2023-01-29T14:30:02.738Z,1.24
2023-01-29T14:32:30.773Z,1.16
2023-01-29T14:35:05.253Z,1.05
2023-01-29T14:37:40.899Z,0.96
2023-01-29T14:40:11.745Z,0.92
2023-01-29T14:42:52.464Z,0.92
2023-01-29T14:45:26.257Z,0.92
2023-01-29T14:48:10.931Z,0.87
2023-01-29T14:50:46.339Z,0.89
2023-01-29T14:53:21.144Z,0.91
2023-01-29T14:56:15.049Z,0.89
2023-01-29T14:58:57.290Z,0.89
2023-01-29T15:01:31.071Z,0.90
2023-01-29T15:04:04.905Z,0.91
2023-01-29T15:06:47.339Z,0.90
2023-01-29T15:09:36.897Z,0.88
2023-01-29T15:12:33.857Z,0.85
2023-01-29T15:15:14.612Z,0.80
2023-01-29T15:17:57.127Z,0.75
2023-01-29T15:20:36.943Z,0.73
2023-01-29T15:23:26.079Z,0.70
2023-01-29T15:26:03.650Z,0.71
2023-01-29T15:28:33.946Z,0.71
2023-01-29T15:31:04.578Z,0.73
2023-01-29T15:33:35.317Z,0.73
2023-01-29T15:36:08.691Z,0.74
2023-01-29T15:38:37.046Z,0.75
2023-01-29T15:41:20.406Z,0.75
2023-01-29T15:43:57.541Z,0.74
2023-01-29T15:46:32.780Z,0.76
2023-01-29T15:49:08.530Z,0.76
2023-01-29T15:51:36.422Z,0.72
2023-01-29T15:54:10.155Z,0.70
2023-01-29T15:56:43.494Z,0.70
2023-01-29T15:59:21.703Z,0.69
2023-01-29T16:01:49.597Z,0.70
2023-01-29T16:04:33.600Z,0.72
2023-01-29T16:07:03.716Z,0.72
2023-01-29T16:09:32.137Z,0.72
2023-01-29T16:12:00.361Z,0.74
2023-01-29T16:14:30.280Z,0.75
2023-01-29T16:17:30.532Z,0.75
2023-01-29T16:20:00.355Z,0.77
2023-01-29T16:22:37.188Z,0.76
2023-01-29T16:25:08.657Z,0.76
2023-01-29T16:27:36.513Z,0.76
2023-01-29T16:30:07.262Z,0.76
2023-01-29T16:32:35.567Z,0.71
2023-01-29T16:35:03.970Z,0.65
2023-01-29T16:37:36.529Z,0.66
2023-01-29T16:40:26.807Z,0.68
2023-01-29T16:43:16.778Z,0.64
2023-01-29T16:46:06.064Z,0.62
2023-01-29T16:48:35.140Z,0.63
2023-01-29T16:51:14.380Z,0.65
2023-01-29T16:53:57.305Z,0.67
2023-01-29T16:56:28.415Z,0.66
2023-01-29T16:58:57.599Z,0.65
2023-01-29T17:01:28.771Z,0.66
2023-01-29T17:04:13.419Z,0.68
2023-01-29T17:06:44.802Z,0.67
2023-01-29T17:09:30.316Z,0.67
2023-01-29T17:12:02.562Z,0.66
2023-01-29T17:14:33.003Z,0.63
2023-01-29T17:17:16.740Z,0.63
2023-01-29T17:19:44.781Z,0.67
2023-01-29T17:22:15.535Z,0.72
2023-01-29T17:24:43.888Z,0.73
2023-01-29T17:27:20.006Z,0.72
2023-01-29T17:29:48.341Z,0.75
2023-01-29T17:32:18.991Z,0.75
2023-01-29T17:34:47.151Z,0.74
2023-01-29T17:37:16.566Z,0.74
2023-01-29T17:39:48.295Z,0.76
2023-01-29T17:42:16.675Z,0.78
2023-01-29T17:44:45.445Z,0.77
2023-01-29T17:47:15.178Z,0.75
2023-01-29T17:49:43.402Z,0.76
2023-01-29T17:52:11.628Z,0.74
2023-01-29T17:54:39.581Z,0.70
2023-01-29T17:57:07.539Z,0.65
2023-01-29T17:59:35.713Z,0.61
2023-01-29T18:02:03.676Z,0.62
2023-01-29T18:04:31.853Z,0.63
2023-01-29T18:06:59.833Z,0.65
2023-01-29T18:09:28.105Z,0.66
2023-01-29T18:11:55.889Z,0.65
2023-01-29T18:14:23.836Z,0.65
2023-01-29T18:16:51.666Z,0.67
2023-01-29T18:19:23.224Z,0.66
2023-01-29T18:21:51.656Z,0.64
2023-01-29T18:24:21.039Z,0.63
2023-01-29T18:26:51.154Z,0.61
2023-01-29T18:29:19.255Z,0.63
2023-01-29T18:31:50.540Z,0.61
2023-01-29T18:34:18.355Z,0.59
2023-01-29T18:36:48.227Z,0.60
2023-01-29T18:39:17.035Z,0.61
2023-01-29T18:41:44.860Z,0.62
2023-01-29T18:44:12.886Z,0.62
2023-01-29T18:46:40.815Z,0.61
2023-01-29T18:49:08.739Z,0.63
2023-01-29T18:51:36.611Z,0.67
2023-01-29T18:54:04.743Z,0.70
2023-01-29T18:56:32.596Z,0.71
2023-01-29T18:59:00.574Z,0.71
2023-01-29T19:01:28.831Z,0.73
2023-01-29T19:03:59.242Z,0.70
2023-01-29T19:06:27.466Z,0.66
2023-01-29T19:08:55.311Z,0.68
2023-01-29T19:11:23.230Z,0.69
2023-01-29T19:13:51.095Z,0.70
2023-01-29T19:16:18.938Z,0.67
2023-01-29T19:18:46.887Z,0.62
2023-01-29T19:21:16.200Z,0.64
2023-01-29T19:23:45.041Z,0.66
2023-01-29T19:26:13.775Z,0.64
2023-01-29T19:28:42.358Z,0.67
2023-01-29T19:31:11.530Z,0.67
2023-01-29T19:33:39.433Z,0.71
2023-01-29T19:36:07.893Z,0.74
2023-01-29T19:38:38.742Z,0.73
2023-01-29T19:41:06.968Z,0.73
2023-01-29T19:43:35.310Z,0.70
2023-01-29T19:46:03.249Z,0.69
2023-01-29T19:48:31.084Z,0.68
2023-01-29T19:51:01.616Z,0.71
2023-01-29T19:53:30.189Z,0.72
2023-01-29T19:56:03.843Z,0.69
2023-01-29T19:58:32.516Z,0.64
2023-01-29T20:01:05.722Z,0.65
2023-01-29T20:03:34.520Z,0.64
2023-01-29T20:06:03.988Z,0.60
2023-01-29T20:08:33.467Z,0.57
2023-01-29T20:11:02.709Z,0.56
2023-01-29T20:13:30.560Z,0.57
2023-01-29T20:16:03.018Z,0.58
2023-01-29T20:18:32.052Z,0.57
2023-01-29T20:21:05.561Z,0.57
2023-01-29T20:23:38.087Z,0.59
2023-01-29T20:26:08.748Z,0.63
2023-01-29T20:28:36.967Z,0.64
2023-01-29T20:31:06.800Z,0.62
2023-01-29T20:33:37.034Z,0.59
2023-01-29T20:36:10.149Z,0.58
2023-01-29T20:38:38.537Z,0.56
2023-01-29T20:41:14.080Z,0.57
2023-01-29T20:43:42.926Z,0.59
2023-01-29T20:46:11.708Z,0.61
2023-01-29T20:48:40.050Z,0.60
2023-01-29T20:51:13.049Z,0.59
2023-01-29T20:53:43.312Z,0.62
2023-01-29T20:56:12.024Z,0.62
2023-01-29T20:58:43.314Z,0.62
2023-01-29T21:01:13.442Z,0.64
2023-01-29T21:03:42.125Z,0.62
2023-01-29T21:06:11.298Z,0.63
2023-01-29T21:08:40.510Z,0.62
2023-01-29T21:11:09.406Z,0.63
2023-01-29T21:13:37.731Z,0.64
2023-01-29T21:16:06.613Z,0.63
2023-01-29T21:18:34.503Z,0.63
2023-01-29T21:21:02.397Z,0.64
2023-01-29T21:23:30.514Z,0.63
2023-01-29T21:26:06.262Z,0.66
2023-01-29T21:28:35.160Z,0.70
2023-01-29T21:31:10.685Z,0.72
2023-01-29T21:33:38.837Z,0.73
2023-01-29T21:36:07.631Z,0.76
2023-01-29T21:38:36.186Z,0.75
2023-01-29T21:41:06.892Z,0.76
2023-01-29T21:43:34.707Z,0.73
2023-01-29T21:46:05.243Z,0.73
2023-01-29T21:48:33.224Z,0.74
2023-01-29T21:51:01.058Z,0.74
2023-01-29T21:53:28.943Z,0.74
2023-01-29T21:56:00.157Z,0.74
2023-01-29T21:58:29.346Z,0.76
2023-01-29T22:01:18.480Z,0.77
2023-01-29T22:03:47.409Z,0.78
2023-01-29T22:06:15.779Z,0.78
2023-01-29T22:08:43.615Z,0.81
2023-01-29T22:11:12.135Z,0.83
2023-01-29T22:13:39.878Z,0.81
2023-01-29T22:16:08.047Z,0.81
2023-01-29T22:18:35.917Z,0.83
2023-01-29T22:21:03.790Z,0.87
2023-01-29T22:23:32.439Z,0.87
2023-01-29T22:26:09.492Z,0.83
2023-01-29T22:28:37.792Z,0.81
2023-01-29T22:31:05.990Z,0.82
2023-01-29T22:33:34.389Z,0.82
2023-01-29T22:36:02.573Z,0.82
2023-01-29T22:38:31.129Z,0.82
2023-01-29T22:41:00.540Z,0.85
2023-01-29T22:43:29.497Z,0.86
2023-01-29T22:45:57.404Z,0.83
2023-01-29T22:48:25.565Z,0.84
2023-01-29T22:51:09.444Z,0.84
2023-01-29T22:53:52.654Z,0.86
2023-01-29T22:56:25.325Z,0.87
2023-01-29T22:58:55.106Z,0.86
2023-01-29T23:01:25.760Z,0.88
2023-01-29T23:03:53.947Z,0.91
2023-01-29T23:06:22.063Z,0.93
2023-01-29T23:08:51.229Z,0.95
2023-01-29T23:11:21.549Z,0.97
2023-01-29T23:13:52.050Z,0.98
2023-01-29T23:16:23.099Z,1.00
2023-01-29T23:18:53.624Z,0.98
2023-01-29T23:21:24.952Z,0.99
2023-01-29T23:23:55.469Z,0.98
2023-01-29T23:26:42.883Z,0.97
2023-01-29T23:29:10.780Z,1.00
2023-01-29T23:31:39.071Z,1.03
2023-01-29T23:34:06.944Z,1.05
2023-01-29T23:44:09.348Z,1.17
2023-01-29T23:46:37.311Z,1.19
2023-01-29T23:49:05.405Z,1.19
2023-01-29T23:51:33.342Z,1.20
2023-01-29T23:54:01.153Z,1.19
2023-01-29T23:56:28.981Z,1.18
2023-01-29T23:58:58.046Z,1.16
